sensor_id;sensor_type;location;lat;lon;timestamp;P1;durP1;ratioP1;P2;durP2;ratioP2
72771;SDS011;60894;42.544;1.516;2023-05-27T00:01:47;14.68;;;6.22;;
72771;SDS011;60894;42.544;1.516;2023-05-27T00:04:14;16.02;;;6.38;;
72771;SDS011;60894;42.544;1.516;2023-05-27T00:06:41;17.15;;;6.40;;
72771;SDS011;60894;42.544;1.516;2023-05-27T00:09:08;16.03;;;6.30;;
72771;SDS011;60894;42.544;1.516;2023-05-27T00:11:36;13.18;;;5.75;;
72771;SDS011;60894;42.544;1.516;2023-05-27T00:14:03;16.60;;;6.47;;
72771;SDS011;60894;42.544;1.516;2023-05-27T00:16:30;14.48;;;6.03;;
72771;SDS011;60894;42.544;1.516;2023-05-27T00:19:02;15.88;;;6.43;;
72771;SDS011;60894;42.544;1.516;2023-05-27T00:21:29;13.20;;;5.97;;
72771;SDS011;60894;42.544;1.516;2023-05-27T00:23:56;14.68;;;6.18;;
72771;SDS011;60894;42.544;1.516;2023-05-27T00:26:24;17.25;;;6.05;;
72771;SDS011;60894;42.544;1.516;2023-05-27T00:28:51;15.05;;;6.43;;
72771;SDS011;60894;42.544;1.516;2023-05-27T00:31:18;13.15;;;6.22;;
72771;SDS011;60894;42.544;1.516;2023-05-27T00:33:45;14.93;;;5.70;;
72771;SDS011;60894;42.544;1.516;2023-05-27T00:36:13;13.23;;;5.68;;
72771;SDS011;60894;42.544;1.516;2023-05-27T00:38:40;14.20;;;6.07;;
72771;SDS011;60894;42.544;1.516;2023-05-27T00:41:07;14.07;;;5.07;;
72771;SDS011;60894;42.544;1.516;2023-05-27T00:43:36;14.32;;;5.82;;
72771;SDS011;60894;42.544;1.516;2023-05-27T00:46:03;17.53;;;6.30;;
72771;SDS011;60894;42.544;1.516;2023-05-27T00:48:31;13.82;;;5.75;;
72771;SDS011;60894;42.544;1.516;2023-05-27T00:50:58;19.27;;;6.45;;
72771;SDS011;60894;42.544;1.516;2023-05-27T00:53:26;16.27;;;6.13;;
72771;SDS011;60894;42.544;1.516;2023-05-27T00:55:53;13.90;;;5.72;;
72771;SDS011;60894;42.544;1.516;2023-05-27T00:58:21;14.77;;;6.00;;
72771;SDS011;60894;42.544;1.516;2023-05-27T01:00:48;13.18;;;5.57;;
72771;SDS011;60894;42.544;1.516;2023-05-27T01:03:16;11.82;;;5.45;;
72771;SDS011;60894;42.544;1.516;2023-05-27T01:05:45;13.30;;;5.75;;
72771;SDS011;60894;42.544;1.516;2023-05-27T01:08:16;15.18;;;5.28;;
72771;SDS011;60894;42.544;1.516;2023-05-27T01:10:52;17.73;;;5.70;;
72771;SDS011;60894;42.544;1.516;2023-05-27T01:13:24;14.18;;;5.82;;
72771;SDS011;60894;42.544;1.516;2023-05-27T01:15:59;15.75;;;6.22;;
72771;SDS011;60894;42.544;1.516;2023-05-27T01:18:28;13.40;;;5.70;;
72771;SDS011;60894;42.544;1.516;2023-05-27T01:20:59;16.58;;;6.18;;
72771;SDS011;60894;42.544;1.516;2023-05-27T01:23:30;13.43;;;5.43;;
72771;SDS011;60894;42.544;1.516;2023-05-27T01:25:58;15.25;;;5.95;;
72771;SDS011;60894;42.544;1.516;2023-05-27T01:28:25;12.30;;;5.95;;
72771;SDS011;60894;42.544;1.516;2023-05-27T01:30:53;15.35;;;5.85;;
72771;SDS011;60894;42.544;1.516;2023-05-27T01:33:24;14.07;;;5.63;;
72771;SDS011;60894;42.544;1.516;2023-05-27T01:35:57;13.93;;;5.73;;
72771;SDS011;60894;42.544;1.516;2023-05-27T01:38:28;15.35;;;6.05;;
72771;SDS011;60894;42.544;1.516;2023-05-27T01:40:59;18.08;;;6.25;;
72771;SDS011;60894;42.544;1.516;2023-05-27T01:43:26;15.88;;;6.00;;
72771;SDS011;60894;42.544;1.516;2023-05-27T01:45:54;13.27;;;5.60;;
72771;SDS011;60894;42.544;1.516;2023-05-27T01:48:21;14.27;;;6.07;;
72771;SDS011;60894;42.544;1.516;2023-05-27T01:50:48;13.15;;;5.57;;
72771;SDS011;60894;42.544;1.516;2023-05-27T01:53:15;16.20;;;6.47;;
72771;SDS011;60894;42.544;1.516;2023-05-27T01:55:43;14.55;;;6.28;;
72771;SDS011;60894;42.544;1.516;2023-05-27T01:58:10;14.48;;;5.78;;
72771;SDS011;60894;42.544;1.516;2023-05-27T02:00:37;14.10;;;5.73;;
72771;SDS011;60894;42.544;1.516;2023-05-27T02:03:04;15.35;;;5.82;;
72771;SDS011;60894;42.544;1.516;2023-05-27T02:05:32;17.17;;;5.75;;
72771;SDS011;60894;42.544;1.516;2023-05-27T02:08:01;15.40;;;5.65;;
72771;SDS011;60894;42.544;1.516;2023-05-27T02:10:27;14.63;;;5.82;;
72771;SDS011;60894;42.544;1.516;2023-05-27T02:12:56;13.70;;;6.20;;
72771;SDS011;60894;42.544;1.516;2023-05-27T02:15:23;17.92;;;5.90;;
72771;SDS011;60894;42.544;1.516;2023-05-27T02:17:51;15.25;;;6.28;;
72771;SDS011;60894;42.544;1.516;2023-05-27T02:20:20;15.15;;;5.82;;
72771;SDS011;60894;42.544;1.516;2023-05-27T02:22:47;16.85;;;6.25;;
72771;SDS011;60894;42.544;1.516;2023-05-27T02:25:15;15.17;;;5.67;;
72771;SDS011;60894;42.544;1.516;2023-05-27T02:27:42;14.57;;;6.13;;
72771;SDS011;60894;42.544;1.516;2023-05-27T02:30:15;13.98;;;5.65;;
72771;SDS011;60894;42.544;1.516;2023-05-27T02:32:42;12.13;;;5.55;;
72771;SDS011;60894;42.544;1.516;2023-05-27T02:35:09;15.80;;;5.20;;
72771;SDS011;60894;42.544;1.516;2023-05-27T02:37:38;17.83;;;6.07;;
72771;SDS011;60894;42.544;1.516;2023-05-27T02:40:06;15.50;;;5.93;;
72771;SDS011;60894;42.544;1.516;2023-05-27T02:42:34;14.45;;;6.00;;
72771;SDS011;60894;42.544;1.516;2023-05-27T02:45:01;14.75;;;5.93;;
72771;SDS011;60894;42.544;1.516;2023-05-27T02:47:30;17.67;;;6.82;;
72771;SDS011;60894;42.544;1.516;2023-05-27T02:49:57;14.63;;;5.80;;
72771;SDS011;60894;42.544;1.516;2023-05-27T02:52:24;14.18;;;5.78;;
72771;SDS011;60894;42.544;1.516;2023-05-27T02:54:50;15.18;;;6.22;;
72771;SDS011;60894;42.544;1.516;2023-05-27T02:57:17;15.90;;;5.90;;
72771;SDS011;60894;42.544;1.516;2023-05-27T02:59:45;11.60;;;5.55;;
72771;SDS011;60894;42.544;1.516;2023-05-27T03:02:12;18.90;;;6.23;;
72771;SDS011;60894;42.544;1.516;2023-05-27T03:04:40;15.50;;;6.22;;
72771;SDS011;60894;42.544;1.516;2023-05-27T03:07:07;15.05;;;5.35;;
72771;SDS011;60894;42.544;1.516;2023-05-27T03:09:34;16.02;;;5.65;;
72771;SDS011;60894;42.544;1.516;2023-05-27T03:12:01;17.42;;;5.80;;
72771;SDS011;60894;42.544;1.516;2023-05-27T03:14:29;15.83;;;5.60;;
72771;SDS011;60894;42.544;1.516;2023-05-27T03:16:55;16.02;;;5.80;;
72771;SDS011;60894;42.544;1.516;2023-05-27T03:19:22;14.57;;;5.70;;
72771;SDS011;60894;42.544;1.516;2023-05-27T03:21:51;13.93;;;5.40;;
72771;SDS011;60894;42.544;1.516;2023-05-27T03:24:18;15.43;;;5.50;;
72771;SDS011;60894;42.544;1.516;2023-05-27T03:26:45;16.40;;;6.07;;
72771;SDS011;60894;42.544;1.516;2023-05-27T03:29:11;16.45;;;6.68;;
72771;SDS011;60894;42.544;1.516;2023-05-27T03:31:38;14.77;;;5.35;;
72771;SDS011;60894;42.544;1.516;2023-05-27T03:34:05;14.32;;;5.25;;
72771;SDS011;60894;42.544;1.516;2023-05-27T03:36:32;13.52;;;6.03;;
72771;SDS011;60894;42.544;1.516;2023-05-27T03:39:04;15.00;;;5.80;;
72771;SDS011;60894;42.544;1.516;2023-05-27T03:41:31;15.38;;;6.55;;
72771;SDS011;60894;42.544;1.516;2023-05-27T03:43:58;15.55;;;5.80;;
72771;SDS011;60894;42.544;1.516;2023-05-27T03:46:25;14.55;;;5.68;;
72771;SDS011;60894;42.544;1.516;2023-05-27T03:48:51;11.70;;;5.72;;
72771;SDS011;60894;42.544;1.516;2023-05-27T03:51:19;14.10;;;6.13;;
72771;SDS011;60894;42.544;1.516;2023-05-27T03:53:47;12.93;;;5.90;;
72771;SDS011;60894;42.544;1.516;2023-05-27T03:56:15;17.25;;;5.68;;
72771;SDS011;60894;42.544;1.516;2023-05-27T03:58:43;16.65;;;6.40;;
72771;SDS011;60894;42.544;1.516;2023-05-27T04:01:10;13.88;;;6.18;;
72771;SDS011;60894;42.544;1.516;2023-05-27T04:03:37;16.70;;;6.03;;
72771;SDS011;60894;42.544;1.516;2023-05-27T04:06:05;14.30;;;5.72;;
72771;SDS011;60894;42.544;1.516;2023-05-27T04:08:32;15.45;;;6.00;;
72771;SDS011;60894;42.544;1.516;2023-05-27T04:11:00;14.13;;;5.82;;
72771;SDS011;60894;42.544;1.516;2023-05-27T04:13:29;17.67;;;5.60;;
72771;SDS011;60894;42.544;1.516;2023-05-27T04:15:56;13.60;;;5.87;;
72771;SDS011;60894;42.544;1.516;2023-05-27T04:18:24;18.38;;;5.80;;
72771;SDS011;60894;42.544;1.516;2023-05-27T04:20:51;12.38;;;5.32;;
72771;SDS011;60894;42.544;1.516;2023-05-27T04:23:18;15.77;;;5.28;;
72771;SDS011;60894;42.544;1.516;2023-05-27T04:25:45;16.60;;;5.63;;
72771;SDS011;60894;42.544;1.516;2023-05-27T04:28:13;15.30;;;5.97;;
72771;SDS011;60894;42.544;1.516;2023-05-27T04:30:42;13.80;;;5.82;;
72771;SDS011;60894;42.544;1.516;2023-05-27T04:33:11;18.33;;;6.40;;
72771;SDS011;60894;42.544;1.516;2023-05-27T04:35:38;18.15;;;6.47;;
72771;SDS011;60894;42.544;1.516;2023-05-27T04:38:09;15.52;;;5.53;;
72771;SDS011;60894;42.544;1.516;2023-05-27T04:40:41;16.17;;;5.70;;
72771;SDS011;60894;42.544;1.516;2023-05-27T04:43:10;13.65;;;5.35;;
72771;SDS011;60894;42.544;1.516;2023-05-27T04:45:39;13.55;;;5.13;;
72771;SDS011;60894;42.544;1.516;2023-05-27T04:48:08;17.63;;;5.70;;
72771;SDS011;60894;42.544;1.516;2023-05-27T04:50:36;15.50;;;5.75;;
72771;SDS011;60894;42.544;1.516;2023-05-27T04:53:03;16.47;;;5.70;;
72771;SDS011;60894;42.544;1.516;2023-05-27T04:55:30;16.92;;;6.15;;
72771;SDS011;60894;42.544;1.516;2023-05-27T04:57:57;12.85;;;5.40;;
72771;SDS011;60894;42.544;1.516;2023-05-27T05:00:27;18.73;;;5.75;;
72771;SDS011;60894;42.544;1.516;2023-05-27T05:03:05;18.75;;;5.95;;
72771;SDS011;60894;42.544;1.516;2023-05-27T05:05:33;17.97;;;5.97;;
72771;SDS011;60894;42.544;1.516;2023-05-27T05:08:01;16.80;;;6.00;;
72771;SDS011;60894;42.544;1.516;2023-05-27T05:10:29;14.65;;;5.85;;
72771;SDS011;60894;42.544;1.516;2023-05-27T05:12:56;16.50;;;5.90;;
72771;SDS011;60894;42.544;1.516;2023-05-27T05:15:23;15.27;;;5.80;;
72771;SDS011;60894;42.544;1.516;2023-05-27T05:17:50;19.00;;;5.73;;
72771;SDS011;60894;42.544;1.516;2023-05-27T05:20:18;17.10;;;5.70;;
72771;SDS011;60894;42.544;1.516;2023-05-27T05:22:45;15.27;;;5.97;;
72771;SDS011;60894;42.544;1.516;2023-05-27T05:25:13;16.13;;;6.03;;
72771;SDS011;60894;42.544;1.516;2023-05-27T05:27:41;15.90;;;5.82;;
72771;SDS011;60894;42.544;1.516;2023-05-27T05:30:08;14.30;;;6.00;;
72771;SDS011;60894;42.544;1.516;2023-05-27T05:32:35;14.68;;;5.60;;
72771;SDS011;60894;42.544;1.516;2023-05-27T05:35:02;19.30;;;6.85;;
72771;SDS011;60894;42.544;1.516;2023-05-27T05:37:31;20.23;;;5.68;;
72771;SDS011;60894;42.544;1.516;2023-05-27T05:39:58;22.80;;;11.65;;
72771;SDS011;60894;42.544;1.516;2023-05-27T05:42:24;24.40;;;11.03;;
72771;SDS011;60894;42.544;1.516;2023-05-27T05:44:51;17.77;;;7.95;;
72771;SDS011;60894;42.544;1.516;2023-05-27T05:47:18;16.30;;;8.30;;
72771;SDS011;60894;42.544;1.516;2023-05-27T05:49:45;19.17;;;7.60;;
72771;SDS011;60894;42.544;1.516;2023-05-27T05:52:12;19.13;;;7.75;;
72771;SDS011;60894;42.544;1.516;2023-05-27T05:54:41;20.83;;;7.40;;
72771;SDS011;60894;42.544;1.516;2023-05-27T05:57:08;17.50;;;6.07;;
72771;SDS011;60894;42.544;1.516;2023-05-27T05:59:35;14.90;;;6.70;;
72771;SDS011;60894;42.544;1.516;2023-05-27T06:02:02;17.33;;;6.25;;
72771;SDS011;60894;42.544;1.516;2023-05-27T06:04:31;20.88;;;6.15;;
72771;SDS011;60894;42.544;1.516;2023-05-27T06:06:57;16.10;;;5.40;;
72771;SDS011;60894;42.544;1.516;2023-05-27T06:09:24;15.77;;;5.53;;
72771;SDS011;60894;42.544;1.516;2023-05-27T06:11:53;19.63;;;7.93;;
72771;SDS011;60894;42.544;1.516;2023-05-27T06:14:19;19.90;;;6.88;;
72771;SDS011;60894;42.544;1.516;2023-05-27T06:16:47;19.45;;;6.43;;
72771;SDS011;60894;42.544;1.516;2023-05-27T06:19:14;15.63;;;5.73;;
72771;SDS011;60894;42.544;1.516;2023-05-27T06:21:41;20.25;;;6.32;;
72771;SDS011;60894;42.544;1.516;2023-05-27T06:24:08;22.15;;;9.45;;
72771;SDS011;60894;42.544;1.516;2023-05-27T06:26:35;23.95;;;9.55;;
72771;SDS011;60894;42.544;1.516;2023-05-27T06:29:03;18.38;;;8.20;;
72771;SDS011;60894;42.544;1.516;2023-05-27T06:31:30;19.13;;;8.27;;
72771;SDS011;60894;42.544;1.516;2023-05-27T06:33:58;23.65;;;6.93;;
72771;SDS011;60894;42.544;1.516;2023-05-27T06:36:25;15.73;;;5.60;;
72771;SDS011;60894;42.544;1.516;2023-05-27T06:38:52;22.45;;;9.00;;
72771;SDS011;60894;42.544;1.516;2023-05-27T06:41:19;29.60;;;13.48;;
72771;SDS011;60894;42.544;1.516;2023-05-27T06:43:46;24.07;;;9.73;;
72771;SDS011;60894;42.544;1.516;2023-05-27T06:46:15;20.55;;;6.82;;
72771;SDS011;60894;42.544;1.516;2023-05-27T06:48:42;17.67;;;6.40;;
72771;SDS011;60894;42.544;1.516;2023-05-27T06:51:09;17.88;;;6.13;;
72771;SDS011;60894;42.544;1.516;2023-05-27T06:53:35;17.40;;;7.50;;
72771;SDS011;60894;42.544;1.516;2023-05-27T06:56:02;23.00;;;9.30;;
72771;SDS011;60894;42.544;1.516;2023-05-27T06:58:30;22.48;;;7.70;;
72771;SDS011;60894;42.544;1.516;2023-05-27T07:00:57;22.27;;;8.25;;
72771;SDS011;60894;42.544;1.516;2023-05-27T07:03:25;19.83;;;7.53;;
72771;SDS011;60894;42.544;1.516;2023-05-27T07:05:52;20.40;;;7.63;;
72771;SDS011;60894;42.544;1.516;2023-05-27T07:08:19;14.33;;;6.30;;
72771;SDS011;60894;42.544;1.516;2023-05-27T07:10:47;17.85;;;6.20;;
72771;SDS011;60894;42.544;1.516;2023-05-27T07:13:14;18.30;;;6.97;;
72771;SDS011;60894;42.544;1.516;2023-05-27T07:15:41;24.33;;;7.35;;
72771;SDS011;60894;42.544;1.516;2023-05-27T07:18:08;18.08;;;5.75;;
72771;SDS011;60894;42.544;1.516;2023-05-27T07:20:37;17.87;;;4.90;;
72771;SDS011;60894;42.544;1.516;2023-05-27T07:23:05;16.02;;;4.95;;
72771;SDS011;60894;42.544;1.516;2023-05-27T07:25:32;21.15;;;5.65;;
72771;SDS011;60894;42.544;1.516;2023-05-27T07:27:59;16.58;;;5.22;;
72771;SDS011;60894;42.544;1.516;2023-05-27T07:30:26;15.90;;;5.10;;
72771;SDS011;60894;42.544;1.516;2023-05-27T07:32:53;16.37;;;5.07;;
72771;SDS011;60894;42.544;1.516;2023-05-27T07:35:20;25.52;;;9.45;;
72771;SDS011;60894;42.544;1.516;2023-05-27T07:37:48;16.10;;;5.53;;
72771;SDS011;60894;42.544;1.516;2023-05-27T07:40:15;20.35;;;7.68;;
72771;SDS011;60894;42.544;1.516;2023-05-27T07:42:42;14.77;;;5.13;;
72771;SDS011;60894;42.544;1.516;2023-05-27T07:45:10;16.37;;;5.10;;
72771;SDS011;60894;42.544;1.516;2023-05-27T07:47:37;17.17;;;4.72;;
72771;SDS011;60894;42.544;1.516;2023-05-27T07:50:04;16.98;;;5.38;;
72771;SDS011;60894;42.544;1.516;2023-05-27T07:52:32;20.20;;;5.68;;
72771;SDS011;60894;42.544;1.516;2023-05-27T07:55:00;18.73;;;5.68;;
72771;SDS011;60894;42.544;1.516;2023-05-27T07:57:27;16.10;;;5.03;;
72771;SDS011;60894;42.544;1.516;2023-05-27T07:59:54;17.17;;;5.13;;
72771;SDS011;60894;42.544;1.516;2023-05-27T08:02:21;20.42;;;4.97;;
72771;SDS011;60894;42.544;1.516;2023-05-27T08:04:48;17.25;;;4.82;;
72771;SDS011;60894;42.544;1.516;2023-05-27T08:07:15;17.88;;;5.30;;
72771;SDS011;60894;42.544;1.516;2023-05-27T08:09:42;18.87;;;4.70;;
72771;SDS011;60894;42.544;1.516;2023-05-27T08:12:10;15.43;;;4.22;;
72771;SDS011;60894;42.544;1.516;2023-05-27T08:14:38;18.20;;;5.28;;
72771;SDS011;60894;42.544;1.516;2023-05-27T08:17:05;20.00;;;4.88;;
72771;SDS011;60894;42.544;1.516;2023-05-27T08:19:32;17.23;;;4.80;;
72771;SDS011;60894;42.544;1.516;2023-05-27T08:21:59;20.87;;;4.63;;
72771;SDS011;60894;42.544;1.516;2023-05-27T08:24:27;20.60;;;4.85;;
72771;SDS011;60894;42.544;1.516;2023-05-27T08:26:55;13.88;;;4.40;;
72771;SDS011;60894;42.544;1.516;2023-05-27T08:29:24;20.30;;;4.38;;
72771;SDS011;60894;42.544;1.516;2023-05-27T08:31:52;17.85;;;4.95;;
72771;SDS011;60894;42.544;1.516;2023-05-27T08:34:20;19.67;;;4.37;;
72771;SDS011;60894;42.544;1.516;2023-05-27T08:36:47;18.75;;;4.70;;
72771;SDS011;60894;42.544;1.516;2023-05-27T08:39:14;13.60;;;4.07;;
72771;SDS011;60894;42.544;1.516;2023-05-27T08:41:41;19.27;;;4.75;;
72771;SDS011;60894;42.544;1.516;2023-05-27T08:44:08;22.20;;;4.40;;
72771;SDS011;60894;42.544;1.516;2023-05-27T08:46:37;19.70;;;4.50;;
72771;SDS011;60894;42.544;1.516;2023-05-27T08:49:05;15.23;;;4.47;;
72771;SDS011;60894;42.544;1.516;2023-05-27T08:51:32;18.15;;;4.30;;
72771;SDS011;60894;42.544;1.516;2023-05-27T08:54:01;18.52;;;4.60;;
72771;SDS011;60894;42.544;1.516;2023-05-27T08:56:28;16.38;;;5.00;;
72771;SDS011;60894;42.544;1.516;2023-05-27T08:58:58;18.87;;;4.87;;
72771;SDS011;60894;42.544;1.516;2023-05-27T09:01:25;18.35;;;4.78;;
72771;SDS011;60894;42.544;1.516;2023-05-27T09:03:55;16.55;;;3.63;;
72771;SDS011;60894;42.544;1.516;2023-05-27T09:06:22;23.38;;;3.40;;
72771;SDS011;60894;42.544;1.516;2023-05-27T09:08:49;19.90;;;3.33;;
72771;SDS011;60894;42.544;1.516;2023-05-27T09:11:20;16.70;;;3.17;;
72771;SDS011;60894;42.544;1.516;2023-05-27T09:13:48;15.07;;;3.22;;
72771;SDS011;60894;42.544;1.516;2023-05-27T09:16:19;25.45;;;3.80;;
72771;SDS011;60894;42.544;1.516;2023-05-27T09:18:47;23.63;;;3.90;;
72771;SDS011;60894;42.544;1.516;2023-05-27T09:21:15;21.52;;;4.07;;
72771;SDS011;60894;42.544;1.516;2023-05-27T09:23:42;20.53;;;3.83;;
72771;SDS011;60894;42.544;1.516;2023-05-27T09:26:10;21.85;;;3.85;;
72771;SDS011;60894;42.544;1.516;2023-05-27T09:28:37;24.23;;;3.95;;
72771;SDS011;60894;42.544;1.516;2023-05-27T09:31:05;23.23;;;4.18;;
72771;SDS011;60894;42.544;1.516;2023-05-27T09:33:34;19.10;;;4.15;;
72771;SDS011;60894;42.544;1.516;2023-05-27T09:36:02;20.60;;;4.17;;
72771;SDS011;60894;42.544;1.516;2023-05-27T09:38:32;24.50;;;3.50;;
72771;SDS011;60894;42.544;1.516;2023-05-27T09:41:00;25.42;;;3.75;;
72771;SDS011;60894;42.544;1.516;2023-05-27T09:43:27;21.55;;;4.13;;
72771;SDS011;60894;42.544;1.516;2023-05-27T09:45:57;22.10;;;3.63;;
72771;SDS011;60894;42.544;1.516;2023-05-27T09:48:25;22.37;;;3.53;;
72771;SDS011;60894;42.544;1.516;2023-05-27T09:50:55;25.52;;;3.95;;
72771;SDS011;60894;42.544;1.516;2023-05-27T09:53:23;19.52;;;3.97;;
72771;SDS011;60894;42.544;1.516;2023-05-27T09:55:53;22.08;;;3.70;;
72771;SDS011;60894;42.544;1.516;2023-05-27T09:58:21;20.08;;;3.72;;
72771;SDS011;60894;42.544;1.516;2023-05-27T10:00:49;19.10;;;3.70;;
72771;SDS011;60894;42.544;1.516;2023-05-27T10:03:17;26.58;;;4.07;;
72771;SDS011;60894;42.544;1.516;2023-05-27T10:05:46;23.40;;;4.45;;
72771;SDS011;60894;42.544;1.516;2023-05-27T10:08:16;22.95;;;4.47;;
72771;SDS011;60894;42.544;1.516;2023-05-27T10:10:44;25.20;;;3.78;;
72771;SDS011;60894;42.544;1.516;2023-05-27T10:13:13;19.73;;;3.87;;
72771;SDS011;60894;42.544;1.516;2023-05-27T10:15:45;23.73;;;3.97;;
72771;SDS011;60894;42.544;1.516;2023-05-27T10:18:21;23.33;;;4.38;;
72771;SDS011;60894;42.544;1.516;2023-05-27T10:20:49;33.00;;;4.38;;
72771;SDS011;60894;42.544;1.516;2023-05-27T10:23:17;26.38;;;4.10;;
72771;SDS011;60894;42.544;1.516;2023-05-27T10:25:47;25.73;;;4.30;;
72771;SDS011;60894;42.544;1.516;2023-05-27T10:28:25;22.73;;;3.75;;
72771;SDS011;60894;42.544;1.516;2023-05-27T10:30:53;25.50;;;4.28;;
72771;SDS011;60894;42.544;1.516;2023-05-27T10:33:29;20.35;;;3.53;;
72771;SDS011;60894;42.544;1.516;2023-05-27T10:35:56;19.23;;;3.80;;
72771;SDS011;60894;42.544;1.516;2023-05-27T10:38:29;25.17;;;4.33;;
72771;SDS011;60894;42.544;1.516;2023-05-27T10:40:58;26.85;;;4.18;;
72771;SDS011;60894;42.544;1.516;2023-05-27T10:43:28;21.42;;;3.78;;
72771;SDS011;60894;42.544;1.516;2023-05-27T10:46:02;19.98;;;3.45;;
72771;SDS011;60894;42.544;1.516;2023-05-27T10:48:30;21.67;;;3.67;;
72771;SDS011;60894;42.544;1.516;2023-05-27T10:50:58;27.43;;;5.33;;
72771;SDS011;60894;42.544;1.516;2023-05-27T10:53:26;24.67;;;4.20;;
72771;SDS011;60894;42.544;1.516;2023-05-27T10:55:56;28.02;;;4.13;;
72771;SDS011;60894;42.544;1.516;2023-05-27T10:58:24;22.75;;;3.92;;
72771;SDS011;60894;42.544;1.516;2023-05-27T11:00:54;22.67;;;4.35;;
72771;SDS011;60894;42.544;1.516;2023-05-27T11:03:23;22.83;;;3.97;;
72771;SDS011;60894;42.544;1.516;2023-05-27T11:06:00;23.35;;;5.10;;
72771;SDS011;60894;42.544;1.516;2023-05-27T11:08:29;25.65;;;4.05;;
72771;SDS011;60894;42.544;1.516;2023-05-27T11:10:59;21.27;;;3.85;;
72771;SDS011;60894;42.544;1.516;2023-05-27T11:13:33;23.33;;;4.03;;
72771;SDS011;60894;42.544;1.516;2023-05-27T11:16:03;18.83;;;4.07;;
72771;SDS011;60894;42.544;1.516;2023-05-27T11:18:35;21.67;;;4.20;;
72771;SDS011;60894;42.544;1.516;2023-05-27T11:21:02;23.90;;;4.50;;
72771;SDS011;60894;42.544;1.516;2023-05-27T11:23:33;31.52;;;5.18;;
72771;SDS011;60894;42.544;1.516;2023-05-27T11:26:10;25.95;;;4.80;;
72771;SDS011;60894;42.544;1.516;2023-05-27T11:28:37;22.60;;;3.80;;
72771;SDS011;60894;42.544;1.516;2023-05-27T11:31:06;23.48;;;3.78;;
72771;SDS011;60894;42.544;1.516;2023-05-27T11:33:33;19.85;;;4.07;;
72771;SDS011;60894;42.544;1.516;2023-05-27T11:36:04;19.90;;;4.35;;
72771;SDS011;60894;42.544;1.516;2023-05-27T11:38:38;21.23;;;4.60;;
72771;SDS011;60894;42.544;1.516;2023-05-27T11:41:11;31.67;;;5.37;;
72771;SDS011;60894;42.544;1.516;2023-05-27T11:43:46;23.92;;;4.07;;
72771;SDS011;60894;42.544;1.516;2023-05-27T11:46:15;20.50;;;4.40;;
72771;SDS011;60894;42.544;1.516;2023-05-27T11:48:42;16.88;;;4.18;;
72771;SDS011;60894;42.544;1.516;2023-05-27T11:51:09;22.45;;;5.05;;
72771;SDS011;60894;42.544;1.516;2023-05-27T11:53:38;24.47;;;3.73;;
72771;SDS011;60894;42.544;1.516;2023-05-27T11:56:05;19.38;;;3.97;;
72771;SDS011;60894;42.544;1.516;2023-05-27T11:58:32;23.83;;;3.65;;
72771;SDS011;60894;42.544;1.516;2023-05-27T12:00:59;23.42;;;4.40;;
72771;SDS011;60894;42.544;1.516;2023-05-27T12:03:28;25.15;;;4.07;;
72771;SDS011;60894;42.544;1.516;2023-05-27T12:05:55;27.00;;;4.40;;
72771;SDS011;60894;42.544;1.516;2023-05-27T12:08:21;19.58;;;4.10;;
72771;SDS011;60894;42.544;1.516;2023-05-27T12:10:49;21.52;;;4.22;;
72771;SDS011;60894;42.544;1.516;2023-05-27T12:13:19;27.40;;;4.75;;
72771;SDS011;60894;42.544;1.516;2023-05-27T12:15:46;28.08;;;4.40;;
72771;SDS011;60894;42.544;1.516;2023-05-27T12:18:13;23.43;;;4.17;;
72771;SDS011;60894;42.544;1.516;2023-05-27T12:20:41;22.48;;;3.33;;
72771;SDS011;60894;42.544;1.516;2023-05-27T12:23:09;25.42;;;4.60;;
72771;SDS011;60894;42.544;1.516;2023-05-27T12:25:36;20.90;;;3.85;;
72771;SDS011;60894;42.544;1.516;2023-05-27T12:28:05;21.02;;;3.97;;
72771;SDS011;60894;42.544;1.516;2023-05-27T12:30:33;25.13;;;4.60;;
72771;SDS011;60894;42.544;1.516;2023-05-27T12:33:00;22.17;;;3.50;;
72771;SDS011;60894;42.544;1.516;2023-05-27T12:35:27;26.17;;;4.13;;
72771;SDS011;60894;42.544;1.516;2023-05-27T12:37:56;26.08;;;4.10;;
72771;SDS011;60894;42.544;1.516;2023-05-27T12:40:23;22.20;;;4.10;;
72771;SDS011;60894;42.544;1.516;2023-05-27T12:42:50;21.20;;;4.40;;
72771;SDS011;60894;42.544;1.516;2023-05-27T12:45:17;23.17;;;4.07;;
72771;SDS011;60894;42.544;1.516;2023-05-27T12:47:47;25.48;;;4.75;;
72771;SDS011;60894;42.544;1.516;2023-05-27T12:50:14;24.27;;;3.95;;
72771;SDS011;60894;42.544;1.516;2023-05-27T12:52:42;26.05;;;4.45;;
72771;SDS011;60894;42.544;1.516;2023-05-27T12:55:13;26.33;;;4.97;;
72771;SDS011;60894;42.544;1.516;2023-05-27T12:57:42;23.85;;;4.05;;
72771;SDS011;60894;42.544;1.516;2023-05-27T13:00:10;25.42;;;4.18;;
72771;SDS011;60894;42.544;1.516;2023-05-27T13:02:38;18.20;;;4.55;;
72771;SDS011;60894;42.544;1.516;2023-05-27T13:05:05;21.90;;;4.32;;
72771;SDS011;60894;42.544;1.516;2023-05-27T13:07:33;29.80;;;4.20;;
72771;SDS011;60894;42.544;1.516;2023-05-27T13:10:01;27.63;;;4.85;;
72771;SDS011;60894;42.544;1.516;2023-05-27T13:12:31;25.48;;;4.80;;
72771;SDS011;60894;42.544;1.516;2023-05-27T13:15:00;25.77;;;4.57;;
72771;SDS011;60894;42.544;1.516;2023-05-27T13:17:28;21.38;;;5.72;;
72771;SDS011;60894;42.544;1.516;2023-05-27T13:19:55;21.70;;;4.80;;
72771;SDS011;60894;42.544;1.516;2023-05-27T13:22:22;24.83;;;5.03;;
72771;SDS011;60894;42.544;1.516;2023-05-27T13:24:50;23.05;;;4.90;;
72771;SDS011;60894;42.544;1.516;2023-05-27T13:27:17;24.42;;;4.57;;
72771;SDS011;60894;42.544;1.516;2023-05-27T13:29:45;28.40;;;5.07;;
72771;SDS011;60894;42.544;1.516;2023-05-27T13:32:12;21.30;;;5.03;;
72771;SDS011;60894;42.544;1.516;2023-05-27T13:34:39;24.95;;;4.50;;
72771;SDS011;60894;42.544;1.516;2023-05-27T13:37:06;25.92;;;4.40;;
72771;SDS011;60894;42.544;1.516;2023-05-27T13:39:33;24.00;;;4.10;;
72771;SDS011;60894;42.544;1.516;2023-05-27T13:42:00;24.67;;;4.47;;
72771;SDS011;60894;42.544;1.516;2023-05-27T13:44:27;19.97;;;4.30;;
72771;SDS011;60894;42.544;1.516;2023-05-27T13:46:55;28.25;;;4.70;;
72771;SDS011;60894;42.544;1.516;2023-05-27T13:49:22;20.27;;;4.32;;
72771;SDS011;60894;42.544;1.516;2023-05-27T13:51:49;23.88;;;4.45;;
72771;SDS011;60894;42.544;1.516;2023-05-27T13:54:16;23.10;;;4.38;;
72771;SDS011;60894;42.544;1.516;2023-05-27T13:56:43;23.27;;;5.23;;
72771;SDS011;60894;42.544;1.516;2023-05-27T13:59:10;21.98;;;4.00;;
72771;SDS011;60894;42.544;1.516;2023-05-27T14:01:38;19.33;;;4.07;;
72771;SDS011;60894;42.544;1.516;2023-05-27T14:04:07;23.33;;;4.10;;
72771;SDS011;60894;42.544;1.516;2023-05-27T14:06:34;20.00;;;4.32;;
72771;SDS011;60894;42.544;1.516;2023-05-27T14:09:01;19.97;;;4.37;;
72771;SDS011;60894;42.544;1.516;2023-05-27T14:11:29;21.70;;;4.50;;
72771;SDS011;60894;42.544;1.516;2023-05-27T14:13:56;19.13;;;3.83;;
72771;SDS011;60894;42.544;1.516;2023-05-27T14:16:23;18.42;;;3.80;;
72771;SDS011;60894;42.544;1.516;2023-05-27T14:18:49;17.52;;;4.15;;
72771;SDS011;60894;42.544;1.516;2023-05-27T14:21:18;23.57;;;4.13;;
72771;SDS011;60894;42.544;1.516;2023-05-27T14:23:45;21.08;;;4.10;;
72771;SDS011;60894;42.544;1.516;2023-05-27T14:26:12;21.90;;;4.57;;
72771;SDS011;60894;42.544;1.516;2023-05-27T14:28:40;20.75;;;4.75;;
72771;SDS011;60894;42.544;1.516;2023-05-27T14:31:07;26.27;;;4.57;;
72771;SDS011;60894;42.544;1.516;2023-05-27T14:33:34;25.23;;;4.40;;
72771;SDS011;60894;42.544;1.516;2023-05-27T14:36:01;28.15;;;4.47;;
72771;SDS011;60894;42.544;1.516;2023-05-27T14:38:29;25.67;;;4.75;;